Terminal Aerodrome Forecast
Issued by NWS Louisville, KY

Home | Current Version | Previous Version | Text Only | Print | Product List | Glossary On
Versions: 1 2 3 4 5 6 7 8 9 10 11 12 13 14
000
FTUS43 KLMK 241126
TAFLEX
TAF
KLEX 241126Z 2412/2512 19012KT P6SM SCT150
     FM241600 20017G29KT P6SM SCT040 SCT150
     FM250100 25012G25KT 5SM SHRA VCTS OVC035CB
     FM250500 27012KT P6SM BKN035=

USA.gov is the U.S. government's official web portal to all federal, state and local government web resources and services.